Data for 11/10/2009

Time Sea-Level Adjusted Pressure Absolute Pressure Temperature Relative Humidity Dew Point   
(mb) (inHg) (mb) (inHg) (C) (F) (%) (C) (F)
00:05 1018 30.06 847 25.01 5.3 41.6 28 -11.6 11.1
00:10 1018 30.06 847 25.01 5.3 41.5 28 -11.7 11
00:15 1018 30.06 847 25.01 5.2 41.3 28 -11.8 10.8
00:20 1018 30.06 847 25.01 5.2 41.3 29 -11.4 11.4
00:25 1018 30.06 847 25.01 5 41 29 -11.5 11.4
00:30 1018 30.06 847 25.01 4.8 40.6 30 -11.3 11.7
00:35 1018 30.06 847 25.01 4.7 40.5 30 -11.5 11.3
00:40 1018 30.06 847 25.01 4.9 40.9 29 -11.5 11.3
00:45 1018 30.06 847 25.01 5 40.9 29 -11.6 11.2
00:50 1018 30.06 847 25.01 5.1 41.2 29 -11.7 11
00:55 1018 30.06 847 25.01 5 41.1 29 -11.5 11.3
01:00 1018 30.06 847 25.01 5 40.9 29 -11.7 11
01:05 1018 30.06 847 25.01 5.1 41.2 28 -11.8 10.8
01:10 1018 30.06 847 25.01 5.3 41.5 28 -11.8 10.7
01:15 1017 30.03 847 25.01 5.7 42.2 27 -11.8 10.8
01:20 1017 30.03 847 25.01 5.9 42.6 28 -11.5 11.3
01:25 1017 30.03 847 25.01 5.7 42.3 28 -11.5 11.4
01:30 1017 30.03 847 25.01 5.8 42.5 26 -12.1 10.3
01:35 1018 30.06 847 25.01 6.3 43.4 26 -11.9 10.6
01:40 1018 30.06 847 25.01 6.5 43.6 26 -11.9 10.6
01:45 1017 30.03 847 25.01 6.5 43.7 25 -12 10.3
01:50 1018 30.06 847 25.01 6.8 44.2 25 -11.8 10.8
01:55 1018 30.06 847 25.01 6.6 43.8 25 -11.9 10.5
02:00 1017 30.03 847 25.01 7.5 45.4 20 -14.4 6.1
02:05 1017 30.03 847 25.01 8 46.5 21 -13.1 8.5
02:10 1018 30.06 847 25.01 7.7 45.9 23 -12.3 9.8
02:15 1018 30.06 847 25.01 7.3 45.1 23 -12.5 9.5
02:20 1018 30.06 847 25.01 7.5 45.5 23 -12.2 10
02:25 1018 30.06 847 25.01 7.2 45 24 -12.2 10
02:30 1018 30.06 847 25.01 7 44.5 25 -11.8 10.8
02:35 1018 30.06 847 25.01 6.7 44 26 -11.3 11.6
02:40 1018 30.06 847 25.01 6.2 43.1 27 -11.5 11.2
02:45 1018 30.06 847 25.01 6 42.9 27 -11.6 11.2
02:50 1018 30.06 847 25.01 5.9 42.7 28 -11.4 11.6
02:55 1018 30.06 847 25.01 5.7 42.2 28 -11.4 11.5
03:00 1018 30.06 847 25.01 5.2 41.4 29 -11.5 11.3
03:05 1018 30.06 847 25.01 5.6 42.2 27 -11.9 10.5
03:10 1018 30.06 847 25.01 5.6 42.1 28 -11.3 11.6
03:15 1018 30.06 847 25.01 5.4 41.7 28 -11.7 11
03:20 1018 30.06 847 25.01 5.5 42 28 -11.8 10.7
03:25 1018 30.06 847 25.01 5.6 42.1 26 -12.6 9.3
03:30 1018 30.06 847 25.01 6.3 43.4 25 -12.2 10.1
03:35 1018 30.06 847 25.01 6.6 43.8 27 -11.2 11.8
03:40 1018 30.06 847 25.01 6 42.8 29 -10.9 12.4
03:45 1018 30.06 847 25.01 5.3 41.5 29 -11.5 11.3
03:50 1018 30.06 847 25.01 5.1 41.2 31 -10.8 12.6
03:55 1018 30.06 847 25.01 5 41 30 -11.3 11.7
04:00 1018 30.06 847 25.01 5.2 41.3 29 -11.6 11.1
04:05 1018 30.06 847 25.01 5.3 41.6 30 -10.9 12.3
04:10 1018 30.06 847 25.01 5 40.9 28 -12.3 9.9
04:15 1018 30.06 848 25.04 5.3 41.6 27 -12.2 10.1
04:20 1018 30.06 848 25.04 5.6 42.1 28 -11.7 10.9
04:25 1018 30.06 848 25.04 5.9 42.7 27 -11.7 10.9
04:30 1019 30.09 848 25.04 6 42.8 27 -11.4 11.4
04:35 1018 30.06 848 25.04 5.5 41.9 30 -10.8 12.6
04:40 1019 30.09 848 25.04 4.9 40.9 30 -11.4 11.5
04:45 1019 30.09 848 25.04 5.6 42 29 -11.1 12.1
04:50 1019 30.09 848 25.04 5.5 41.8 31 -10.6 13
04:55 1019 30.09 848 25.04 5.1 41.1 28 -12.2 10
05:00 1019 30.09 848 25.04 5.8 42.4 28 -11.6 11.1
05:05 1019 30.09 848 25.04 6 42.8 27 -11.7 11
05:10 1019 30.09 848 25.04 5.8 42.4 27 -11.7 10.9
05:15 1019 30.09 848 25.04 6.3 43.3 28 -11.1 12.1
05:20 1019 30.09 848 25.04 5.9 42.7 29 -10.7 12.7
05:25 1019 30.09 848 25.04 5.9 42.5 29 -10.8 12.6
05:30 1019 30.09 848 25.04 5.5 41.8 33 -9.7 14.5
05:35 1019 30.09 848 25.04 4.3 39.8 32 -10.9 12.3
05:40 1019 30.09 848 25.04 4.9 40.8 31 -11 12.3
05:45 1019 30.09 848 25.04 5.6 42.1 29 -10.9 12.5
05:50 1019 30.09 848 25.04 5.7 42.2 30 -10.6 12.9
05:55 1019 30.09 848 25.04 5.8 42.4 29 -11.1 12
06:00 1019 30.09 848 25.04 6.3 43.3 30 -10 14.1
06:05 1019 30.09 848 25.04 5.1 41.2 31 -10.7 12.7
06:10 1019 30.09 848 25.04 5.2 41.4 30 -10.9 12.5
06:15 1019 30.09 848 25.04 5.9 42.6 28 -11.4 11.4
06:20 1019 30.09 848 25.04 6.4 43.6 28 -10.6 12.9
06:25 1019 30.09 848 25.04 6.1 42.9 27 -11.4 11.5
06:30 1019 30.09 848 25.04 6.2 43.2 27 -11.3 11.7
06:35 1019 30.09 848 25.04 5.8 42.5 28 -11.5 11.2
06:40 1019 30.09 848 25.04 5.7 42.3 28 -11.4 11.5
06:45 1019 30.09 848 25.04 5.7 42.3 29 -11.1 12.1
06:50 1019 30.09 848 25.04 5.6 42.1 28 -11.6 11.1
06:55 1019 30.09 848 25.04 6.1 42.9 27 -11.4 11.5
07:00 1019 30.09 848 25.04 6.1 43 27 -11.6 11.2
07:05 1019 30.09 848 25.04 6.4 43.5 26 -11.7 10.9
07:10 1019 30.09 848 25.04 6.8 44.2 24 -12.3 9.8
07:15 1019 30.09 848 25.04 7.4 45.2 25 -11.4 11.5
07:20 1019 30.09 848 25.04 7.3 45.1 25 -11.6 11.1
07:25 1019 30.09 849 25.07 7.7 45.8 26 -10.8 12.5
07:30 1019 30.09 849 25.07 7.8 46 25 -10.8 12.6
07:35 1019 30.09 849 25.07 7.4 45.3 26 -10.8 12.6
07:40 1020 30.12 849 25.07 6.7 44 27 -11 12.1
07:45 1020 30.12 849 25.07 6.2 43.1 27 -11.4 11.4
07:50 1020 30.12 849 25.07 6.5 43.6 27 -11.4 11.5
07:55 1020 30.12 849 25.07 6.6 43.8 26 -11.8 10.8
08:00 1020 30.12 849 25.07 7 44.6 24 -12.2 10.1
08:05 1020 30.12 849 25.07 7.5 45.5 24 -11.8 10.8
08:10 1020 30.12 849 25.07 7.8 46.1 24 -11.4 11.5
08:15 1020 30.12 849 25.07 8 46.4 23 -12.2 10.1
08:20 1020 30.12 849 25.07 8.4 47 24 -11.2 11.9
08:25 1020 30.12 849 25.07 8.2 46.7 23 -11.6 11.1
08:30 1020 30.12 849 25.07 8.8 47.8 21 -12.4 9.7
08:35 1020 30.12 849 25.07 9.1 48.5 22 -11.4 11.5
08:40 1020 30.12 849 25.07 9.5 49 21 -11.6 11
08:45 1020 30.12 849 25.07 9.7 49.4 22 -11 12.2
08:50 1020 30.12 849 25.07 9.6 49.3 22 -11.1 12.1
08:55 1020 30.12 849 25.07 9.7 49.5 22 -10.9 12.3
09:00 1020 30.12 849 25.07 9.8 49.7 22 -10.9 12.4
09:05 1020 30.12 849 25.07 9.9 49.8 23 -10.5 13.2
09:10 1020 30.12 849 25.07 9.9 49.8 23 -10.2 13.7
09:15 1020 30.12 849 25.07 9.8 49.7 24 -9.8 14.3
09:20 1020 30.12 849 25.07 9.8 49.6 24 -9.9 14.3
09:25 1020 30.12 849 25.07 9.9 49.8 24 -9.8 14.3
09:30 1020 30.12 849 25.07 10.1 50.1 24 -9.9 14.3
09:35 1020 30.12 849 25.07 10.2 50.3 24 -9.7 14.6
09:40 1020 30.12 849 25.07 10.2 50.3 24 -9.4 15
09:45 1020 30.12 849 25.07 10.3 50.5 25 -9.1 15.7
09:50 1020 30.12 849 25.07 10.5 50.8 25 -8.8 16.2
09:55 1020 30.12 849 25.07 10.4 50.7 25 -9 15.8
10:00 1020 30.12 849 25.07 10.6 51 24 -9 15.7
10:05 1020 30.12 849 25.07 10.6 51 24 -9.1 15.7
10:10 1020 30.12 849 25.07 10.7 51.2 24 -9 15.8
10:15 1020 30.12 849 25.07 10.7 51.3 24 -9.2 15.5
10:20 1020 30.12 849 25.07 10.5 50.9 24 -9.4 15.1
10:25 1020 30.12 849 25.07 10.6 51 23 -9.5 14.9
10:30 1020 30.12 849 25.07 10.5 50.9 23 -9.6 14.8
10:35 1020 30.12 849 25.07 10 49.9 25 -9.4 15.2
10:40 1020 30.12 849 25.07 9.7 49.4 25 -9.2 15.4
10:45 1020 30.12 850 25.1 10.2 50.4 24 -9.4 15
10:50 1020 30.12 850 25.1 11.2 52.1 22 -9.8 14.4
10:55 1020 30.12 850 25.1 11.8 53.2 22 -9.3 15.2
11:00 1020 30.12 850 25.1 11.9 53.4 21 -9.8 14.3
11:05 1020 30.12 850 25.1 11.9 53.5 21 -9.6 14.8
11:10 1020 30.12 850 25.1 11.9 53.4 22 -9.2 15.5
11:15 1020 30.12 850 25.1 11.4 52.5 22 -9.3 15.2
11:20 1020 30.12 849 25.07 11.9 53.5 21 -9.4 15
11:25 1020 30.12 849 25.07 12.3 54.1 22 -9.1 15.6
11:30 1020 30.12 849 25.07 12.2 54 21 -9.3 15.3
11:35 1020 30.12 849 25.07 12.4 54.3 21 -9.2 15.5
11:40 1020 30.12 849 25.07 12.2 54 21 -9.3 15.3
11:45 1020 30.12 849 25.07 12.8 55 21 -9.3 15.3
11:50 1020 30.12 849 25.07 12.9 55.1 20 -9.3 15.2
11:55 1020 30.12 849 25.07 12.4 54.2 21 -9.6 14.8
12:00 1020 30.12 849 25.07 12.3 54.1 22 -9.1 15.6
12:05 1020 30.12 849 25.07 12.5 54.5 21 -9.5 14.9
12:10 1020 30.12 849 25.07 12.3 54.1 22 -8.9 16
12:15 1020 30.12 849 25.07 12.6 54.7 21 -9.1 15.6
12:20 1020 30.12 849 25.07 13.2 55.8 21 -8.7 16.4
12:25 1020 30.12 849 25.07 12.5 54.6 22 -8.4 16.9
12:30 1020 30.12 849 25.07 12.4 54.2 21 -9.2 15.4
12:35 1020 30.12 849 25.07 13.3 56 20 -9 15.8
12:40 1020 30.12 849 25.07 13.9 57.1 20 -8.7 16.3
12:45 1020 30.12 849 25.07 13.5 56.2 21 -8.6 16.6
12:50 1020 30.12 849 25.07 13.4 56.2 21 -8.5 16.8
12:55 1019 30.09 849 25.07 13.6 56.5 21 -8.6 16.6
13:00 1019 30.09 849 25.07 13.6 56.4 19 -9.7 14.5
13:05 1019 30.09 849 25.07 13.4 56.1 19 -9.8 14.4
13:10 1019 30.09 849 25.07 13.5 56.3 19 -9.5 14.9
13:15 1019 30.09 849 25.07 13.3 55.9 19 -9.7 14.5
13:20 1020 30.12 849 25.07 13.2 55.8 20 -9.3 15.3
13:25 1019 30.09 849 25.07 13.6 56.5 18 -10.5 13.1
13:30 1019 30.09 849 25.07 13.4 56.1 19 -9.9 14.1
13:35 1019 30.09 849 25.07 13.5 56.4 19 -10 14.1
13:40 1019 30.09 849 25.07 13.7 56.6 18 -10.3 13.4
13:45 1020 30.12 849 25.07 13.6 56.5 18 -10.1 13.8
13:50 1020 30.12 849 25.07 13.8 56.8 18 -9.8 14.3
13:55 1020 30.12 849 25.07 13.6 56.5 18 -10 14
14:00 1020 30.12 849 25.07 13.4 56.1 19 -9.9 14.2
14:05 1020 30.12 849 25.07 13.4 56.2 17 -11.1 12
14:10 1020 30.12 849 25.07 13.4 56.1 16 -12.1 10.2
14:15 1020 30.12 849 25.07 13.5 56.4 15 -12.9 8.7
14:20 1020 30.12 849 25.07 13.4 56.1 15 -12.9 8.7
14:25 1020 30.12 849 25.07 13.2 55.8 15 -12.7 9.1
14:30 1020 30.12 849 25.07 13.4 56.2 15 -13 8.6
14:35 1020 30.12 849 25.07 13.5 56.2 15 -12.9 8.9
14:40 1020 30.12 849 25.07 13.7 56.6 15 -12.5 9.6
14:45 1020 30.12 849 25.07 13.7 56.6 15 -12.6 9.3
14:50 1020 30.12 849 25.07 13.7 56.6 14 -13.3 8.1
14:55 1020 30.12 849 25.07 13.4 56.1 14 -13.5 7.8
15:00 1020 30.12 849 25.07 13.3 56 14 -13.3 8
15:05 1020 30.12 849 25.07 13.3 55.9 14 -13.5 7.7
15:10 1020 30.12 849 25.07 13.3 55.9 15 -13.1 8.5
15:15 1020 30.12 849 25.07 13.1 55.7 15 -12.9 8.8
15:20 1020 30.12 849 25.07 13.1 55.5 15 -13 8.7
15:25 1020 30.12 849 25.07 13.1 55.5 15 -12.6 9.3
15:30 1020 30.12 849 25.07 13.1 55.6 16 -12.4 9.6
15:35 1020 30.12 849 25.07 13.2 55.7 14 -13.4 7.9
15:40 1019 30.09 849 25.07 13.1 55.5 15 -12.8 8.9
15:45 1019 30.09 849 25.07 13 55.5 16 -12.6 9.3
15:50 1019 30.09 849 25.07 12.8 55 15 -12.9 8.7
15:55 1019 30.09 849 25.07 12.8 55.1 16 -12.1 10.1
16:00 1020 30.12 849 25.07 12.7 54.8 17 -12 10.3
16:05 1019 30.09 849 25.07 12.7 54.8 17 -11.8 10.8
16:10 1020 30.12 849 25.07 12.7 54.8 17 -11.6 11
16:15 1020 30.12 849 25.07 12.7 54.8 17 -11.8 10.8
16:20 1020 30.12 849 25.07 12.4 54.3 17 -11.8 10.8
16:25 1020 30.12 849 25.07 12.2 53.9 17 -12.1 10.2
16:30 1020 30.12 849 25.07 12 53.6 17 -12.4 9.6
16:35 1020 30.12 849 25.07 11.5 52.6 18 -11.9 10.5
16:40 1020 30.12 849 25.07 10.9 51.6 19 -12.1 10.2
16:45 1020 30.12 849 25.07 10.8 51.4 18 -12.8 8.9
16:50 1020 30.12 849 25.07 10.8 51.5 18 -12.7 9.2
16:55 1020 30.12 849 25.07 10.5 50.9 19 -12.4 9.7
17:00 1020 30.12 849 25.07 10.1 50.2 19 -12.4 9.7
17:05 1020 30.12 849 25.07 9.9 49.9 18 -13.3 8
17:10 1020 30.12 849 25.07 9.9 49.7 19 -13 8.7
17:15 1020 30.12 849 25.07 9.4 48.9 20 -12.7 9.1
17:20 1020 30.12 849 25.07 8.8 47.8 21 -12.6 9.3
17:25 1020 30.12 849 25.07 8.3 46.9 22 -12.5 9.6
17:30 1020 30.12 849 25.07 8 46.3 21 -13.1 8.4
17:35 1020 30.12 849 25.07 8.5 47.3 20 -13.2 8.2
17:40 1020 30.12 849 25.07 8.4 47.1 21 -12.9 8.8
17:45 1020 30.12 849 25.07 7.9 46.3 21 -13.2 8.2
17:50 1020 30.12 849 25.07 8.1 46.5 20 -13.9 7
17:55 1020 30.12 849 25.07 8.1 46.7 21 -13.2 8.2
18:00 1020 30.12 849 25.07 8.1 46.6 20 -13.8 7.2
18:05 1020 30.12 849 25.07 8.1 46.5 20 -13.5 7.7
18:10 1020 30.12 849 25.07 7.8 46 22 -12.7 9.1
18:15 1020 30.12 849 25.07 7.4 45.4 22 -13.2 8.3
18:20 1020 30.12 849 25.07 7.2 45 23 -12.8 8.9
18:25 1020 30.12 849 25.07 7 44.6 24 -12.3 9.8
18:30 1020 30.12 849 25.07 7.2 45 23 -12.7 9.1
18:35 1020 30.12 849 25.07 7.2 44.9 23 -12.4 9.7
18:40 1020 30.12 849 25.07 7.1 44.8 24 -12.2 10
18:45 1020 30.12 849 25.07 7.1 44.8 24 -12 10.4
18:50 1020 30.12 849 25.07 7 44.6 24 -12.3 9.8
18:55 1020 30.12 849 25.07 7.5 45.5 24 -11.8 10.7
19:00 1020 30.12 849 25.07 7.4 45.2 25 -11.6 11.1
19:05 1020 30.12 849 25.07 7.6 45.6 24 -12 10.5
19:10 1020 30.12 849 25.07 7.9 46.3 25 -11.1 12.1
19:15 1020 30.12 849 25.07 8.1 46.7 23 -11.8 10.8
19:20 1020 30.12 849 25.07 8.3 47 24 -11 12.1
19:25 1020 30.12 849 25.07 8.1 46.6 25 -10.9 12.3
19:30 1020 30.12 849 25.07 7.9 46.1 25 -11 12.2
19:35 1020 30.12 849 25.07 7.5 45.5 26 -11 12.2
19:40 1020 30.12 849 25.07 7.4 45.3 26 -11 12.2
19:45 1020 30.12 849 25.07 7 44.7 26 -11.1 12
19:50 1020 30.12 849 25.07 7 44.6 26 -11.2 11.9
19:55 1020 30.12 849 25.07 7.1 44.7 26 -11.1 12.1
20:00 1020 30.12 849 25.07 7.1 44.9 27 -10.7 12.8
20:05 1020 30.12 849 25.07 7.3 45.1 27 -10.5 13.1
20:10 1020 30.12 849 25.07 7.4 45.3 27 -10.2 13.7
20:15 1020 30.12 849 25.07 7.5 45.5 28 -9.8 14.3
20:20 1020 30.12 849 25.07 7.4 45.4 29 -9.7 14.6
20:25 1020 30.12 849 25.07 7.5 45.5 29 -9.5 15
20:30 1020 30.12 849 25.07 7.8 46 30 -8.8 16.1
20:35 1020 30.12 849 25.07 8.5 47.2 29 -8.5 16.8
20:40 1020 30.12 849 25.07 8.6 47.5 29 -8.2 17.2
20:45 1020 30.12 849 25.07 8.4 47.2 30 -8 17.6
20:50 1020 30.12 849 25.07 8 46.4 31 -8.2 17.3
20:55 1020 30.12 849 25.07 7.7 45.8 32 -8 17.5
21:00 1020 30.12 849 25.07 8.2 46.7 31 -8 17.6
21:05 1020 30.12 849 25.07 7.8 46 31 -8.1 17.4
21:10 1020 30.12 849 25.07 7.2 45 33 -8.1 17.4
21:15 1020 30.12 849 25.07 7.1 44.7 32 -8.4 16.9
21:20 1020 30.12 849 25.07 7.1 44.8 32 -8.5 16.6
21:25 1020 30.12 849 25.07 6.9 44.4 33 -8.4 16.9
21:30 1020 30.12 849 25.07 6.3 43.4 34 -8.5 16.7
21:35 1020 30.12 849 25.07 6.1 43.1 34 -8.6 16.5
21:40 1020 30.12 849 25.07 6 42.7 33 -9.1 15.6
21:45 1020 30.12 849 25.07 5.6 42 34 -8.9 16
21:50 1020 30.12 849 25.07 5.4 41.7 34 -9.3 15.3
21:55 1020 30.12 849 25.07 5.8 42.5 32 -9.5 15
22:00 1020 30.12 849 25.07 6.2 43.2 32 -9.2 15.4
22:05 1020 30.12 849 25.07 6.1 42.9 33 -9.1 15.6
22:10 1020 30.12 849 25.07 5.6 42 33 -9.6 14.8
22:15 1020 30.12 849 25.07 5.7 42.3 33 -9.2 15.4
22:20 1020 30.12 849 25.07 5.4 41.7 35 -9.1 15.7
22:25 1020 30.12 849 25.07 5.3 41.6 35 -8.8 16.2
22:30 1020 30.12 849 25.07 5.6 42.1 34 -8.9 15.9
22:35 1020 30.12 849 25.07 5.5 41.9 37 -8.1 17.3
22:40 1020 30.12 849 25.07 5.1 41.2 37 -8.5 16.7
22:45 1020 30.12 849 25.07 5 41 37 -8.4 16.9
22:50 1020 30.12 849 25.07 5 41 38 -8.1 17.4
22:55 1020 30.12 849 25.07 4.6 40.3 40 -7.9 17.7
23:00 1020 30.12 849 25.07 4.7 40.5 40 -7.9 17.8
23:05 1020 30.12 849 25.07 4.6 40.2 40 -7.8 18
23:10 1020 30.12 849 25.07 4.8 40.7 40 -7.7 18.2
23:15 1020 30.12 849 25.07 4.8 40.6 41 -7.4 18.6
23:20 1020 30.12 849 25.07 4.9 40.8 40 -7.5 18.5
23:25 1020 30.12 849 25.07 5.2 41.4 40 -7.5 18.6
23:30 1020 30.12 849 25.07 5.2 41.4 40 -7.2 19
23:35 1020 30.12 849 25.07 5 41 41 -7.2 19.1
23:40 1020 30.12 849 25.07 5.3 41.6 40 -7.2 19
23:45 1020 30.12 849 25.07 5.4 41.7 40 -7.1 19.2
23:50 1020 30.12 849 25.07 5.3 41.5 41 -6.9 19.6
23:55 1020 30.12 849 25.07 5.2 41.4 41 -6.9 19.6
24:00 1020 30.12 849 25.07 5 41 42 -7 19.5